sensor_id;sensor_type;location;lat;lon;timestamp;P1;durP1;ratioP1;P2;durP2;ratioP2
50709;SDS011;37033;49.994;21.992;2022-07-23T00:01:10;17.00;;;11.80;;
50709;SDS011;37033;49.994;21.992;2022-07-23T00:04:00;14.30;;;11.50;;
50709;SDS011;37033;49.994;21.992;2022-07-23T00:06:51;16.20;;;11.20;;
50709;SDS011;37033;49.994;21.992;2022-07-23T00:09:41;15.40;;;12.00;;
50709;SDS011;37033;49.994;21.992;2022-07-23T00:12:31;15.60;;;11.20;;
50709;SDS011;37033;49.994;21.992;2022-07-23T00:15:22;13.70;;;12.20;;
50709;SDS011;37033;49.994;21.992;2022-07-23T00:18:12;15.50;;;12.40;;
50709;SDS011;37033;49.994;21.992;2022-07-23T00:21:03;13.40;;;10.90;;
50709;SDS011;37033;49.994;21.992;2022-07-23T00:23:53;16.10;;;11.70;;
50709;SDS011;37033;49.994;21.992;2022-07-23T00:26:44;16.70;;;11.70;;
50709;SDS011;37033;49.994;21.992;2022-07-23T00:29:34;13.60;;;12.20;;
50709;SDS011;37033;49.994;21.992;2022-07-23T00:32:24;17.90;;;12.10;;
50709;SDS011;37033;49.994;21.992;2022-07-23T00:35:14;12.30;;;10.70;;
50709;SDS011;37033;49.994;21.992;2022-07-23T00:38:08;15.60;;;11.00;;
50709;SDS011;37033;49.994;21.992;2022-07-23T00:40:59;14.20;;;10.80;;
50709;SDS011;37033;49.994;21.992;2022-07-23T00:43:49;11.70;;;10.50;;
50709;SDS011;37033;49.994;21.992;2022-07-23T00:46:44;13.00;;;10.40;;
50709;SDS011;37033;49.994;21.992;2022-07-23T00:49:37;13.90;;;10.70;;
50709;SDS011;37033;49.994;21.992;2022-07-23T00:52:27;13.80;;;9.80;;
50709;SDS011;37033;49.994;21.992;2022-07-23T00:55:17;13.60;;;9.60;;
50709;SDS011;37033;49.994;21.992;2022-07-23T00:58:08;12.10;;;9.30;;
50709;SDS011;37033;49.994;21.992;2022-07-23T01:00:59;16.10;;;10.10;;
50709;SDS011;37033;49.994;21.992;2022-07-23T01:03:50;11.10;;;10.00;;
50709;SDS011;37033;49.994;21.992;2022-07-23T01:06:40;11.50;;;9.30;;
50709;SDS011;37033;49.994;21.992;2022-07-23T01:09:33;11.40;;;9.60;;
50709;SDS011;37033;49.994;21.992;2022-07-23T01:12:25;11.30;;;10.10;;
50709;SDS011;37033;49.994;21.992;2022-07-23T01:15:15;11.20;;;9.90;;
50709;SDS011;37033;49.994;21.992;2022-07-23T01:18:06;11.70;;;10.30;;
50709;SDS011;37033;49.994;21.992;2022-07-23T01:20:59;17.70;;;11.60;;
50709;SDS011;37033;49.994;21.992;2022-07-23T01:23:49;11.60;;;10.40;;
50709;SDS011;37033;49.994;21.992;2022-07-23T01:26:40;13.50;;;11.20;;
50709;SDS011;37033;49.994;21.992;2022-07-23T01:29:34;16.80;;;11.30;;
50709;SDS011;37033;49.994;21.992;2022-07-23T01:32:25;15.10;;;11.10;;
50709;SDS011;37033;49.994;21.992;2022-07-23T01:35:16;13.70;;;12.00;;
50709;SDS011;37033;49.994;21.992;2022-07-23T01:38:06;14.30;;;11.00;;
50709;SDS011;37033;49.994;21.992;2022-07-23T01:40:57;15.40;;;12.50;;
50709;SDS011;37033;49.994;21.992;2022-07-23T01:43:47;13.60;;;11.70;;
50709;SDS011;37033;49.994;21.992;2022-07-23T01:46:39;13.50;;;11.10;;
50709;SDS011;37033;49.994;21.992;2022-07-23T01:49:29;14.30;;;11.60;;
50709;SDS011;37033;49.994;21.992;2022-07-23T01:52:20;13.60;;;12.10;;
50709;SDS011;37033;49.994;21.992;2022-07-23T01:55:10;14.90;;;11.70;;
50709;SDS011;37033;49.994;21.992;2022-07-23T01:58:00;15.20;;;12.20;;
50709;SDS011;37033;49.994;21.992;2022-07-23T02:00:52;13.00;;;10.00;;
50709;SDS011;37033;49.994;21.992;2022-07-23T02:03:42;11.60;;;9.60;;
50709;SDS011;37033;49.994;21.992;2022-07-23T02:06:32;10.60;;;9.50;;
50709;SDS011;37033;49.994;21.992;2022-07-23T02:09:23;10.60;;;9.30;;
50709;SDS011;37033;49.994;21.992;2022-07-23T02:12:13;14.90;;;11.10;;
50709;SDS011;37033;49.994;21.992;2022-07-23T02:15:05;12.00;;;10.70;;
50709;SDS011;37033;49.994;21.992;2022-07-23T02:17:56;12.80;;;11.40;;
50709;SDS011;37033;49.994;21.992;2022-07-23T02:20:47;18.20;;;11.70;;
50709;SDS011;37033;49.994;21.992;2022-07-23T02:23:37;12.70;;;11.30;;
50709;SDS011;37033;49.994;21.992;2022-07-23T02:26:28;18.00;;;11.60;;
50709;SDS011;37033;49.994;21.992;2022-07-23T02:29:19;15.70;;;10.90;;
50709;SDS011;37033;49.994;21.992;2022-07-23T02:32:09;12.40;;;11.20;;
50709;SDS011;37033;49.994;21.992;2022-07-23T02:34:59;13.10;;;11.30;;
50709;SDS011;37033;49.994;21.992;2022-07-23T02:37:50;14.30;;;10.70;;
50709;SDS011;37033;49.994;21.992;2022-07-23T02:40:41;16.90;;;11.50;;
50709;SDS011;37033;49.994;21.992;2022-07-23T02:43:31;15.10;;;11.30;;
50709;SDS011;37033;49.994;21.992;2022-07-23T02:46:22;16.20;;;10.40;;
50709;SDS011;37033;49.994;21.992;2022-07-23T02:49:12;18.00;;;10.60;;
50709;SDS011;37033;49.994;21.992;2022-07-23T02:52:03;12.70;;;10.10;;
50709;SDS011;37033;49.994;21.992;2022-07-23T02:54:54;17.90;;;10.00;;
50709;SDS011;37033;49.994;21.992;2022-07-23T02:57:44;12.40;;;9.70;;
50709;SDS011;37033;49.994;21.992;2022-07-23T03:00:34;10.40;;;9.30;;
50709;SDS011;37033;49.994;21.992;2022-07-23T03:03:25;12.20;;;10.20;;
50709;SDS011;37033;49.994;21.992;2022-07-23T03:06:16;10.20;;;9.40;;
50709;SDS011;37033;49.994;21.992;2022-07-23T03:09:06;11.30;;;9.20;;
50709;SDS011;37033;49.994;21.992;2022-07-23T03:11:57;13.10;;;10.70;;
50709;SDS011;37033;49.994;21.992;2022-07-23T03:14:47;14.00;;;10.30;;
50709;SDS011;37033;49.994;21.992;2022-07-23T03:17:37;12.00;;;10.40;;
50709;SDS011;37033;49.994;21.992;2022-07-23T03:20:27;16.40;;;10.00;;
50709;SDS011;37033;49.994;21.992;2022-07-23T03:23:18;13.70;;;9.80;;
50709;SDS011;37033;49.994;21.992;2022-07-23T03:26:09;13.00;;;10.40;;
50709;SDS011;37033;49.994;21.992;2022-07-23T03:28:59;12.50;;;10.20;;
50709;SDS011;37033;49.994;21.992;2022-07-23T03:31:50;12.60;;;10.30;;
50709;SDS011;37033;49.994;21.992;2022-07-23T03:34:40;11.80;;;9.90;;
50709;SDS011;37033;49.994;21.992;2022-07-23T03:37:30;13.40;;;10.00;;
50709;SDS011;37033;49.994;21.992;2022-07-23T03:40:20;12.10;;;9.20;;
50709;SDS011;37033;49.994;21.992;2022-07-23T03:43:10;11.20;;;10.00;;
50709;SDS011;37033;49.994;21.992;2022-07-23T03:46:01;13.40;;;9.80;;
50709;SDS011;37033;49.994;21.992;2022-07-23T03:48:51;11.00;;;9.80;;
50709;SDS011;37033;49.994;21.992;2022-07-23T03:51:42;11.00;;;9.70;;
50709;SDS011;37033;49.994;21.992;2022-07-23T03:54:32;15.90;;;8.80;;
50709;SDS011;37033;49.994;21.992;2022-07-23T03:57:23;10.70;;;8.50;;
50709;SDS011;37033;49.994;21.992;2022-07-23T04:00:14;14.40;;;8.50;;
50709;SDS011;37033;49.994;21.992;2022-07-23T04:03:05;9.90;;;8.40;;
50709;SDS011;37033;49.994;21.992;2022-07-23T04:05:55;10.40;;;8.80;;
50709;SDS011;37033;49.994;21.992;2022-07-23T04:08:45;13.10;;;8.40;;
50709;SDS011;37033;49.994;21.992;2022-07-23T04:11:36;8.80;;;7.90;;
50709;SDS011;37033;49.994;21.992;2022-07-23T04:14:26;10.10;;;7.80;;
50709;SDS011;37033;49.994;21.992;2022-07-23T04:17:17;10.30;;;7.90;;
50709;SDS011;37033;49.994;21.992;2022-07-23T04:20:08;11.10;;;7.90;;
50709;SDS011;37033;49.994;21.992;2022-07-23T04:23:00;10.40;;;8.10;;
50709;SDS011;37033;49.994;21.992;2022-07-23T04:25:51;8.90;;;8.00;;
50709;SDS011;37033;49.994;21.992;2022-07-23T04:28:41;8.10;;;7.40;;
50709;SDS011;37033;49.994;21.992;2022-07-23T04:31:31;11.80;;;7.80;;
50709;SDS011;37033;49.994;21.992;2022-07-23T04:34:22;10.20;;;7.80;;
50709;SDS011;37033;49.994;21.992;2022-07-23T04:37:13;9.40;;;7.70;;
50709;SDS011;37033;49.994;21.992;2022-07-23T04:40:04;10.00;;;7.20;;
50709;SDS011;37033;49.994;21.992;2022-07-23T04:42:56;9.40;;;7.10;;
50709;SDS011;37033;49.994;21.992;2022-07-23T04:45:46;8.40;;;7.60;;
50709;SDS011;37033;49.994;21.992;2022-07-23T04:48:37;8.60;;;7.20;;
50709;SDS011;37033;49.994;21.992;2022-07-23T04:51:29;8.60;;;7.20;;
50709;SDS011;37033;49.994;21.992;2022-07-23T04:54:19;8.20;;;6.50;;
50709;SDS011;37033;49.994;21.992;2022-07-23T04:57:10;14.00;;;7.90;;
50709;SDS011;37033;49.994;21.992;2022-07-23T05:00:00;7.90;;;7.20;;
50709;SDS011;37033;49.994;21.992;2022-07-23T05:02:51;8.60;;;6.70;;
50709;SDS011;37033;49.994;21.992;2022-07-23T05:05:42;10.70;;;7.50;;
50709;SDS011;37033;49.994;21.992;2022-07-23T05:08:33;8.50;;;7.10;;
50709;SDS011;37033;49.994;21.992;2022-07-23T05:11:24;8.10;;;6.50;;
50709;SDS011;37033;49.994;21.992;2022-07-23T05:14:14;8.10;;;6.80;;
50709;SDS011;37033;49.994;21.992;2022-07-23T05:17:04;8.50;;;7.00;;
50709;SDS011;37033;49.994;21.992;2022-07-23T05:19:55;8.70;;;7.20;;
50709;SDS011;37033;49.994;21.992;2022-07-23T05:22:45;8.30;;;6.70;;
50709;SDS011;37033;49.994;21.992;2022-07-23T05:25:35;9.00;;;7.10;;
50709;SDS011;37033;49.994;21.992;2022-07-23T05:28:25;7.70;;;7.00;;
50709;SDS011;37033;49.994;21.992;2022-07-23T05:31:15;8.80;;;7.10;;
50709;SDS011;37033;49.994;21.992;2022-07-23T05:34:06;12.50;;;6.60;;
50709;SDS011;37033;49.994;21.992;2022-07-23T05:36:56;9.20;;;6.70;;
50709;SDS011;37033;49.994;21.992;2022-07-23T05:39:47;6.70;;;5.90;;
50709;SDS011;37033;49.994;21.992;2022-07-23T05:42:37;7.80;;;7.10;;
50709;SDS011;37033;49.994;21.992;2022-07-23T05:45:29;9.40;;;7.00;;
50709;SDS011;37033;49.994;21.992;2022-07-23T05:48:19;11.30;;;6.50;;
50709;SDS011;37033;49.994;21.992;2022-07-23T05:51:10;9.00;;;6.80;;
50709;SDS011;37033;49.994;21.992;2022-07-23T05:54:01;10.90;;;6.80;;
50709;SDS011;37033;49.994;21.992;2022-07-23T05:56:51;8.10;;;7.10;;
50709;SDS011;37033;49.994;21.992;2022-07-23T05:59:41;9.40;;;7.40;;
50709;SDS011;37033;49.994;21.992;2022-07-23T06:02:32;11.50;;;6.90;;
50709;SDS011;37033;49.994;21.992;2022-07-23T06:05:22;10.30;;;6.70;;
50709;SDS011;37033;49.994;21.992;2022-07-23T06:08:13;7.60;;;6.80;;
50709;SDS011;37033;49.994;21.992;2022-07-23T06:11:03;7.80;;;7.00;;
50709;SDS011;37033;49.994;21.992;2022-07-23T06:13:53;8.00;;;6.60;;
50709;SDS011;37033;49.994;21.992;2022-07-23T06:16:44;7.30;;;6.50;;
50709;SDS011;37033;49.994;21.992;2022-07-23T06:19:34;8.80;;;6.70;;
50709;SDS011;37033;49.994;21.992;2022-07-23T06:22:24;11.20;;;7.20;;
50709;SDS011;37033;49.994;21.992;2022-07-23T06:25:15;10.70;;;7.20;;
50709;SDS011;37033;49.994;21.992;2022-07-23T06:28:06;8.20;;;6.50;;
50709;SDS011;37033;49.994;21.992;2022-07-23T06:30:57;7.60;;;6.60;;
50709;SDS011;37033;49.994;21.992;2022-07-23T06:33:47;8.60;;;6.80;;
50709;SDS011;37033;49.994;21.992;2022-07-23T06:36:38;9.90;;;7.30;;
50709;SDS011;37033;49.994;21.992;2022-07-23T06:39:28;7.40;;;6.70;;
50709;SDS011;37033;49.994;21.992;2022-07-23T06:42:19;8.40;;;6.80;;
50709;SDS011;37033;49.994;21.992;2022-07-23T06:45:09;11.30;;;7.00;;
50709;SDS011;37033;49.994;21.992;2022-07-23T06:48:00;19.00;;;8.50;;
50709;SDS011;37033;49.994;21.992;2022-07-23T06:50:51;8.40;;;7.40;;
50709;SDS011;37033;49.994;21.992;2022-07-23T06:53:41;8.30;;;7.40;;
50709;SDS011;37033;49.994;21.992;2022-07-23T06:56:31;10.80;;;7.40;;
50709;SDS011;37033;49.994;21.992;2022-07-23T06:59:21;8.40;;;7.50;;
50709;SDS011;37033;49.994;21.992;2022-07-23T07:02:12;9.10;;;8.20;;
50709;SDS011;37033;49.994;21.992;2022-07-23T07:05:03;9.70;;;7.50;;
50709;SDS011;37033;49.994;21.992;2022-07-23T07:07:54;8.80;;;7.90;;
50709;SDS011;37033;49.994;21.992;2022-07-23T07:10:45;9.70;;;7.30;;
50709;SDS011;37033;49.994;21.992;2022-07-23T07:13:36;10.30;;;8.10;;
50709;SDS011;37033;49.994;21.992;2022-07-23T07:16:26;13.90;;;9.00;;
50709;SDS011;37033;49.994;21.992;2022-07-23T07:19:17;11.70;;;8.10;;
50709;SDS011;37033;49.994;21.992;2022-07-23T07:22:07;11.00;;;8.00;;
50709;SDS011;37033;49.994;21.992;2022-07-23T07:24:58;9.20;;;7.80;;
50709;SDS011;37033;49.994;21.992;2022-07-23T07:27:48;13.10;;;11.80;;
50709;SDS011;37033;49.994;21.992;2022-07-23T07:30:39;13.90;;;9.00;;
50709;SDS011;37033;49.994;21.992;2022-07-23T07:33:29;11.30;;;8.30;;
50709;SDS011;37033;49.994;21.992;2022-07-23T07:36:20;11.90;;;7.70;;
50709;SDS011;37033;49.994;21.992;2022-07-23T07:39:10;8.80;;;7.50;;
50709;SDS011;37033;49.994;21.992;2022-07-23T07:42:01;10.40;;;9.40;;
50709;SDS011;37033;49.994;21.992;2022-07-23T07:44:51;8.80;;;7.70;;
50709;SDS011;37033;49.994;21.992;2022-07-23T07:47:42;10.80;;;8.00;;
50709;SDS011;37033;49.994;21.992;2022-07-23T07:50:33;8.70;;;7.80;;
50709;SDS011;37033;49.994;21.992;2022-07-23T07:53:23;9.40;;;7.20;;
50709;SDS011;37033;49.994;21.992;2022-07-23T07:56:13;8.50;;;7.60;;
50709;SDS011;37033;49.994;21.992;2022-07-23T07:59:03;9.00;;;7.70;;
50709;SDS011;37033;49.994;21.992;2022-07-23T08:01:53;8.40;;;7.60;;
50709;SDS011;37033;49.994;21.992;2022-07-23T08:04:44;8.40;;;7.40;;
50709;SDS011;37033;49.994;21.992;2022-07-23T08:07:35;11.80;;;7.80;;
50709;SDS011;37033;49.994;21.992;2022-07-23T08:10:27;10.70;;;7.70;;
50709;SDS011;37033;49.994;21.992;2022-07-23T08:13:18;13.30;;;8.80;;
50709;SDS011;37033;49.994;21.992;2022-07-23T08:16:08;7.80;;;7.10;;
50709;SDS011;37033;49.994;21.992;2022-07-23T08:18:59;8.60;;;7.80;;
50709;SDS011;37033;49.994;21.992;2022-07-23T08:21:49;8.90;;;8.00;;
50709;SDS011;37033;49.994;21.992;2022-07-23T08:24:39;9.80;;;8.10;;
50709;SDS011;37033;49.994;21.992;2022-07-23T08:27:30;8.70;;;8.00;;
50709;SDS011;37033;49.994;21.992;2022-07-23T08:30:20;9.70;;;8.20;;
50709;SDS011;37033;49.994;21.992;2022-07-23T08:33:12;8.70;;;7.70;;
50709;SDS011;37033;49.994;21.992;2022-07-23T08:36:04;9.00;;;7.10;;
50709;SDS011;37033;49.994;21.992;2022-07-23T08:38:55;8.30;;;7.60;;
50709;SDS011;37033;49.994;21.992;2022-07-23T08:41:46;9.10;;;7.90;;
50709;SDS011;37033;49.994;21.992;2022-07-23T08:44:37;8.90;;;7.80;;
50709;SDS011;37033;49.994;21.992;2022-07-23T08:47:32;14.10;;;7.00;;
50709;SDS011;37033;49.994;21.992;2022-07-23T08:50:24;13.20;;;7.70;;
50709;SDS011;37033;49.994;21.992;2022-07-23T08:53:15;7.50;;;6.70;;
50709;SDS011;37033;49.994;21.992;2022-07-23T08:56:08;10.00;;;7.10;;
50709;SDS011;37033;49.994;21.992;2022-07-23T08:58:59;7.20;;;6.40;;
50709;SDS011;37033;49.994;21.992;2022-07-23T09:01:49;12.60;;;7.00;;
50709;SDS011;37033;49.994;21.992;2022-07-23T09:04:39;7.50;;;6.90;;
50709;SDS011;37033;49.994;21.992;2022-07-23T09:07:29;8.20;;;7.10;;
50709;SDS011;37033;49.994;21.992;2022-07-23T09:10:20;7.30;;;6.60;;
50709;SDS011;37033;49.994;21.992;2022-07-23T09:13:17;8.60;;;6.20;;
50709;SDS011;37033;49.994;21.992;2022-07-23T09:16:15;7.50;;;6.70;;
50709;SDS011;37033;49.994;21.992;2022-07-23T09:19:07;7.10;;;6.40;;
50709;SDS011;37033;49.994;21.992;2022-07-23T09:22:06;8.30;;;7.20;;
50709;SDS011;37033;49.994;21.992;2022-07-23T09:25:08;8.00;;;6.20;;
50709;SDS011;37033;49.994;21.992;2022-07-23T09:30:50;5.20;;;4.50;;
50709;SDS011;37033;49.994;21.992;2022-07-23T09:33:40;5.70;;;5.20;;
50709;SDS011;37033;49.994;21.992;2022-07-23T09:36:30;8.50;;;6.20;;
50709;SDS011;37033;49.994;21.992;2022-07-23T09:39:26;5.60;;;4.50;;
50709;SDS011;37033;49.994;21.992;2022-07-23T09:42:18;5.50;;;5.00;;
50709;SDS011;37033;49.994;21.992;2022-07-23T09:45:10;5.60;;;4.90;;
50709;SDS011;37033;49.994;21.992;2022-07-23T09:48:11;12.40;;;5.20;;
50709;SDS011;37033;49.994;21.992;2022-07-23T09:51:04;5.40;;;5.00;;
50709;SDS011;37033;49.994;21.992;2022-07-23T09:53:55;5.30;;;4.80;;
50709;SDS011;37033;49.994;21.992;2022-07-23T09:56:45;7.10;;;5.20;;
50709;SDS011;37033;49.994;21.992;2022-07-23T09:59:37;5.40;;;5.00;;
50709;SDS011;37033;49.994;21.992;2022-07-23T10:02:29;5.90;;;5.10;;
50709;SDS011;37033;49.994;21.992;2022-07-23T10:05:22;11.50;;;5.60;;
50709;SDS011;37033;49.994;21.992;2022-07-23T10:08:13;6.90;;;6.00;;
50709;SDS011;37033;49.994;21.992;2022-07-23T10:11:07;8.30;;;5.10;;
50709;SDS011;37033;49.994;21.992;2022-07-23T10:14:00;12.50;;;5.50;;
50709;SDS011;37033;49.994;21.992;2022-07-23T10:16:52;6.30;;;5.80;;
50709;SDS011;37033;49.994;21.992;2022-07-23T10:19:43;9.20;;;5.50;;
50709;SDS011;37033;49.994;21.992;2022-07-23T10:22:34;6.50;;;5.80;;
50709;SDS011;37033;49.994;21.992;2022-07-23T10:25:29;6.20;;;5.60;;
50709;SDS011;37033;49.994;21.992;2022-07-23T10:28:30;6.80;;;6.00;;
50709;SDS011;37033;49.994;21.992;2022-07-23T10:31:38;7.20;;;5.60;;
50709;SDS011;37033;49.994;21.992;2022-07-23T10:34:48;5.70;;;5.20;;
50709;SDS011;37033;49.994;21.992;2022-07-23T10:37:44;6.30;;;5.70;;
50709;SDS011;37033;49.994;21.992;2022-07-23T10:40:37;7.60;;;5.80;;
50709;SDS011;37033;49.994;21.992;2022-07-23T10:43:44;13.90;;;5.90;;
50709;SDS011;37033;49.994;21.992;2022-07-23T10:46:57;6.00;;;5.40;;
50709;SDS011;37033;49.994;21.992;2022-07-23T10:49:54;5.40;;;5.00;;
50709;SDS011;37033;49.994;21.992;2022-07-23T10:53:13;7.70;;;5.00;;
50709;SDS011;37033;49.994;21.992;2022-07-23T10:56:05;6.00;;;5.50;;
50709;SDS011;37033;49.994;21.992;2022-07-23T10:58:56;6.20;;;5.70;;
50709;SDS011;37033;49.994;21.992;2022-07-23T11:01:53;6.90;;;5.30;;
50709;SDS011;37033;49.994;21.992;2022-07-23T11:05:05;8.30;;;5.70;;
50709;SDS011;37033;49.994;21.992;2022-07-23T11:11:11;5.80;;;5.30;;
50709;SDS011;37033;49.994;21.992;2022-07-23T11:14:01;5.50;;;5.10;;
50709;SDS011;37033;49.994;21.992;2022-07-23T11:16:52;5.90;;;5.10;;
50709;SDS011;37033;49.994;21.992;2022-07-23T11:23:04;5.60;;;5.20;;
50709;SDS011;37033;49.994;21.992;2022-07-23T11:25:54;6.40;;;5.40;;
50709;SDS011;37033;49.994;21.992;2022-07-23T11:28:45;6.30;;;5.40;;
50709;SDS011;37033;49.994;21.992;2022-07-23T11:31:37;6.10;;;5.60;;
50709;SDS011;37033;49.994;21.992;2022-07-23T11:34:40;5.50;;;5.20;;
50709;SDS011;37033;49.994;21.992;2022-07-23T11:37:34;8.60;;;5.30;;
50709;SDS011;37033;49.994;21.992;2022-07-23T11:40:26;5.90;;;5.50;;
50709;SDS011;37033;49.994;21.992;2022-07-23T11:43:17;6.10;;;5.40;;
50709;SDS011;37033;49.994;21.992;2022-07-23T11:46:09;5.90;;;5.00;;
50709;SDS011;37033;49.994;21.992;2022-07-23T11:49:02;5.70;;;5.30;;
50709;SDS011;37033;49.994;21.992;2022-07-23T11:54:56;4.80;;;4.40;;
50709;SDS011;37033;49.994;21.992;2022-07-23T11:57:50;4.70;;;4.40;;
50709;SDS011;37033;49.994;21.992;2022-07-23T12:00:41;7.90;;;5.80;;
50709;SDS011;37033;49.994;21.992;2022-07-23T12:03:31;5.60;;;5.10;;
50709;SDS011;37033;49.994;21.992;2022-07-23T12:06:21;5.60;;;5.10;;
50709;SDS011;37033;49.994;21.992;2022-07-23T12:09:11;5.70;;;5.20;;
50709;SDS011;37033;49.994;21.992;2022-07-23T12:12:02;5.70;;;5.20;;
50709;SDS011;37033;49.994;21.992;2022-07-23T12:14:54;7.90;;;6.20;;
50709;SDS011;37033;49.994;21.992;2022-07-23T12:17:47;5.30;;;4.80;;
50709;SDS011;37033;49.994;21.992;2022-07-23T12:20:38;5.20;;;4.70;;
50709;SDS011;37033;49.994;21.992;2022-07-23T12:23:30;5.10;;;4.60;;
50709;SDS011;37033;49.994;21.992;2022-07-23T12:26:20;5.60;;;5.10;;
50709;SDS011;37033;49.994;21.992;2022-07-23T12:29:10;5.10;;;4.70;;
50709;SDS011;37033;49.994;21.992;2022-07-23T12:32:01;6.50;;;4.80;;
50709;SDS011;37033;49.994;21.992;2022-07-23T12:35:04;5.20;;;4.80;;
50709;SDS011;37033;49.994;21.992;2022-07-23T12:37:59;4.60;;;4.30;;
50709;SDS011;37033;49.994;21.992;2022-07-23T12:40:52;5.20;;;4.70;;
50709;SDS011;37033;49.994;21.992;2022-07-23T12:43:44;4.80;;;4.30;;
50709;SDS011;37033;49.994;21.992;2022-07-23T12:46:35;7.80;;;7.20;;
50709;SDS011;37033;49.994;21.992;2022-07-23T12:49:29;5.50;;;4.50;;
50709;SDS011;37033;49.994;21.992;2022-07-23T12:52:19;8.90;;;4.70;;
50709;SDS011;37033;49.994;21.992;2022-07-23T12:55:14;4.90;;;4.40;;
50709;SDS011;37033;49.994;21.992;2022-07-23T12:58:17;4.90;;;4.40;;
50709;SDS011;37033;49.994;21.992;2022-07-23T13:01:08;4.90;;;4.50;;
50709;SDS011;37033;49.994;21.992;2022-07-23T13:04:10;5.40;;;4.50;;
50709;SDS011;37033;49.994;21.992;2022-07-23T13:07:02;5.50;;;5.00;;
50709;SDS011;37033;49.994;21.992;2022-07-23T13:09:53;5.30;;;4.40;;
50709;SDS011;37033;49.994;21.992;2022-07-23T13:12:44;6.00;;;4.60;;
50709;SDS011;37033;49.994;21.992;2022-07-23T13:15:34;4.70;;;4.40;;
50709;SDS011;37033;49.994;21.992;2022-07-23T13:18:25;5.40;;;4.50;;
50709;SDS011;37033;49.994;21.992;2022-07-23T13:21:17;4.90;;;4.40;;
50709;SDS011;37033;49.994;21.992;2022-07-23T13:24:08;4.20;;;3.90;;
50709;SDS011;37033;49.994;21.992;2022-07-23T13:26:59;6.00;;;4.50;;
50709;SDS011;37033;49.994;21.992;2022-07-23T13:29:50;6.10;;;5.50;;
50709;SDS011;37033;49.994;21.992;2022-07-23T13:32:41;5.90;;;5.40;;
50709;SDS011;37033;49.994;21.992;2022-07-23T13:35:34;6.30;;;4.80;;
50709;SDS011;37033;49.994;21.992;2022-07-23T13:38:25;4.40;;;4.00;;
50709;SDS011;37033;49.994;21.992;2022-07-23T13:41:17;5.10;;;4.70;;
50709;SDS011;37033;49.994;21.992;2022-07-23T13:44:07;4.80;;;4.30;;
50709;SDS011;37033;49.994;21.992;2022-07-23T13:46:57;6.40;;;4.50;;
50709;SDS011;37033;49.994;21.992;2022-07-23T13:49:48;6.00;;;4.50;;
50709;SDS011;37033;49.994;21.992;2022-07-23T13:52:38;4.70;;;4.30;;
50709;SDS011;37033;49.994;21.992;2022-07-23T13:55:29;4.30;;;3.70;;
50709;SDS011;37033;49.994;21.992;2022-07-23T13:58:20;7.10;;;4.40;;
50709;SDS011;37033;49.994;21.992;2022-07-23T14:01:11;4.70;;;4.20;;
50709;SDS011;37033;49.994;21.992;2022-07-23T14:04:01;4.40;;;4.10;;
50709;SDS011;37033;49.994;21.992;2022-07-23T14:06:51;4.80;;;4.30;;
50709;SDS011;37033;49.994;21.992;2022-07-23T14:09:42;4.00;;;3.70;;
50709;SDS011;37033;49.994;21.992;2022-07-23T14:12:32;7.70;;;4.30;;
50709;SDS011;37033;49.994;21.992;2022-07-23T14:15:23;4.60;;;4.20;;
50709;SDS011;37033;49.994;21.992;2022-07-23T14:18:14;3.90;;;3.60;;
50709;SDS011;37033;49.994;21.992;2022-07-23T14:21:06;4.50;;;4.20;;
50709;SDS011;37033;49.994;21.992;2022-07-23T14:23:56;5.70;;;4.20;;
50709;SDS011;37033;49.994;21.992;2022-07-23T14:26:46;5.10;;;4.70;;
50709;SDS011;37033;49.994;21.992;2022-07-23T14:29:37;4.40;;;4.10;;
50709;SDS011;37033;49.994;21.992;2022-07-23T14:32:27;4.60;;;4.20;;
50709;SDS011;37033;49.994;21.992;2022-07-23T14:35:17;5.00;;;4.60;;
50709;SDS011;37033;49.994;21.992;2022-07-23T14:38:07;4.70;;;4.20;;
50709;SDS011;37033;49.994;21.992;2022-07-23T14:40:57;6.00;;;4.40;;
50709;SDS011;37033;49.994;21.992;2022-07-23T14:43:48;6.20;;;5.70;;
50709;SDS011;37033;49.994;21.992;2022-07-23T14:46:38;7.30;;;6.60;;
50709;SDS011;37033;49.994;21.992;2022-07-23T14:49:29;5.20;;;4.30;;
50709;SDS011;37033;49.994;21.992;2022-07-23T14:52:20;4.90;;;4.50;;
50709;SDS011;37033;49.994;21.992;2022-07-23T14:55:10;4.60;;;4.30;;
50709;SDS011;37033;49.994;21.992;2022-07-23T14:58:01;6.20;;;4.50;;
50709;SDS011;37033;49.994;21.992;2022-07-23T15:00:51;4.60;;;4.20;;
50709;SDS011;37033;49.994;21.992;2022-07-23T15:03:42;6.30;;;4.40;;
50709;SDS011;37033;49.994;21.992;2022-07-23T15:06:32;4.80;;;4.50;;
50709;SDS011;37033;49.994;21.992;2022-07-23T15:09:23;4.90;;;4.50;;
50709;SDS011;37033;49.994;21.992;2022-07-23T15:12:13;4.60;;;4.20;;
50709;SDS011;37033;49.994;21.992;2022-07-23T15:15:05;5.90;;;4.30;;
50709;SDS011;37033;49.994;21.992;2022-07-23T15:17:56;5.40;;;4.40;;
50709;SDS011;37033;49.994;21.992;2022-07-23T15:20:46;4.50;;;4.20;;
50709;SDS011;37033;49.994;21.992;2022-07-23T15:23:37;6.50;;;4.60;;
50709;SDS011;37033;49.994;21.992;2022-07-23T15:26:27;4.70;;;4.40;;
50709;SDS011;37033;49.994;21.992;2022-07-23T15:29:19;5.00;;;4.60;;
50709;SDS011;37033;49.994;21.992;2022-07-23T15:32:10;5.50;;;4.40;;
50709;SDS011;37033;49.994;21.992;2022-07-23T15:35:00;5.50;;;4.60;;
50709;SDS011;37033;49.994;21.992;2022-07-23T15:37:53;7.50;;;4.50;;
50709;SDS011;37033;49.994;21.992;2022-07-23T15:40:43;5.90;;;5.30;;
50709;SDS011;37033;49.994;21.992;2022-07-23T15:43:33;6.10;;;5.30;;
50709;SDS011;37033;49.994;21.992;2022-07-23T15:46:24;5.30;;;4.90;;
50709;SDS011;37033;49.994;21.992;2022-07-23T15:49:15;5.30;;;4.80;;
50709;SDS011;37033;49.994;21.992;2022-07-23T15:52:05;7.40;;;5.30;;
50709;SDS011;37033;49.994;21.992;2022-07-23T15:54:57;7.90;;;6.40;;
50709;SDS011;37033;49.994;21.992;2022-07-23T15:57:48;6.50;;;5.70;;
50709;SDS011;37033;49.994;21.992;2022-07-23T16:00:39;5.30;;;4.90;;
50709;SDS011;37033;49.994;21.992;2022-07-23T16:03:30;9.90;;;4.90;;
50709;SDS011;37033;49.994;21.992;2022-07-23T16:06:20;11.10;;;5.70;;
50709;SDS011;37033;49.994;21.992;2022-07-23T16:09:11;9.20;;;5.00;;
50709;SDS011;37033;49.994;21.992;2022-07-23T16:12:02;8.30;;;4.90;;
50709;SDS011;37033;49.994;21.992;2022-07-23T16:14:53;6.30;;;5.60;;
50709;SDS011;37033;49.994;21.992;2022-07-23T16:17:44;6.20;;;5.20;;
50709;SDS011;37033;49.994;21.992;2022-07-23T16:20:35;6.20;;;5.70;;
50709;SDS011;37033;49.994;21.992;2022-07-23T16:23:25;7.00;;;5.90;;
50709;SDS011;37033;49.994;21.992;2022-07-23T16:26:17;7.50;;;6.50;;
50709;SDS011;37033;49.994;21.992;2022-07-23T16:29:08;8.70;;;6.50;;
50709;SDS011;37033;49.994;21.992;2022-07-23T16:31:59;8.20;;;7.50;;
50709;SDS011;37033;49.994;21.992;2022-07-23T16:34:49;16.80;;;10.50;;
50709;SDS011;37033;49.994;21.992;2022-07-23T16:37:39;22.20;;;12.60;;
50709;SDS011;37033;49.994;21.992;2022-07-23T16:40:30;16.20;;;10.30;;
50709;SDS011;37033;49.994;21.992;2022-07-23T16:43:21;13.80;;;9.40;;
50709;SDS011;37033;49.994;21.992;2022-07-23T16:46:12;17.80;;;9.10;;
50709;SDS011;37033;49.994;21.992;2022-07-23T16:49:03;14.50;;;11.20;;
50709;SDS011;37033;49.994;21.992;2022-07-23T16:51:54;11.30;;;9.20;;
50709;SDS011;37033;49.994;21.992;2022-07-23T16:54:44;8.20;;;7.30;;
50709;SDS011;37033;49.994;21.992;2022-07-23T16:57:35;10.20;;;9.00;;
50709;SDS011;37033;49.994;21.992;2022-07-23T17:00:26;13.70;;;8.10;;